createdAt,value
2019-03-24T00:00:52.743Z,166.80
2019-03-24T00:03:22.604Z,176.20
2019-03-24T00:05:53.326Z,180.23
2019-03-24T00:08:23.043Z,170.63
2019-03-24T00:10:56.795Z,170.40
2019-03-24T00:13:26.561Z,167.47
2019-03-24T00:15:56.305Z,170.23
2019-03-24T00:18:26.097Z,163.17
2019-03-24T00:20:55.851Z,162.17
2019-03-24T00:23:25.770Z,162.23
2019-03-24T00:25:55.686Z,163.07
2019-03-24T00:28:25.402Z,169.33
2019-03-24T00:30:55.161Z,170.43
2019-03-24T00:33:24.898Z,167.40
2019-03-24T00:35:54.689Z,166.50
2019-03-24T00:38:25.100Z,170.53
2019-03-24T00:40:54.818Z,162.43
2019-03-24T00:43:24.668Z,172.50
2019-03-24T00:45:54.382Z,158.97
2019-03-24T00:48:24.086Z,164.53
2019-03-24T00:50:53.885Z,163.23
2019-03-24T00:53:23.715Z,149.10
2019-03-24T00:55:53.774Z,152.50
2019-03-24T00:58:23.510Z,151.10
2019-03-24T01:00:53.559Z,159.97
2019-03-24T01:03:23.371Z,144.70
2019-03-24T01:05:53.141Z,145.10
2019-03-24T01:08:22.942Z,146.50
2019-03-24T01:10:52.762Z,137.10
2019-03-24T01:13:22.571Z,132.07
2019-03-24T01:15:52.670Z,139.50
2019-03-24T01:18:22.562Z,132.60
2019-03-24T01:20:52.438Z,134.20
2019-03-24T01:23:22.250Z,127.17
2019-03-24T01:25:52.095Z,135.83
2019-03-24T01:28:21.875Z,127.10
2019-03-24T01:30:51.698Z,137.77
2019-03-24T01:33:21.536Z,134.00
2019-03-24T01:35:51.331Z,130.63
2019-03-24T01:38:21.086Z,120.43
2019-03-24T01:40:50.940Z,137.43
2019-03-24T01:43:20.881Z,131.17
2019-03-24T01:45:58.542Z,142.20
2019-03-24T01:48:22.150Z,141.40
2019-03-24T01:50:51.950Z,140.17
2019-03-24T01:53:23.282Z,140.90
2019-03-24T01:55:53.102Z,133.57
2019-03-24T01:58:22.951Z,133.60
2019-03-24T02:00:53.077Z,130.27
2019-03-24T02:03:22.983Z,133.93
2019-03-24T02:05:52.759Z,137.30
2019-03-24T02:08:22.553Z,136.60
2019-03-24T02:10:52.286Z,141.80
2019-03-24T02:13:22.015Z,136.03
2019-03-24T02:15:51.837Z,136.63
2019-03-24T02:18:21.552Z,142.50
2019-03-24T02:20:51.311Z,149.83
2019-03-24T02:23:21.061Z,135.97
2019-03-24T02:28:41.510Z,127.90
2019-03-24T02:31:11.629Z,123.33
2019-03-24T02:33:41.546Z,120.20
2019-03-24T02:36:11.515Z,125.23
2019-03-24T02:38:41.293Z,136.63
2019-03-24T02:41:11.271Z,134.17
2019-03-24T02:43:41.353Z,138.83
2019-03-24T02:46:23.452Z,128.57
2019-03-24T02:48:43.324Z,131.70
2019-03-24T02:51:13.271Z,117.10
2019-03-24T02:53:43.246Z,107.43
2019-03-24T02:56:13.485Z,98.03
2019-03-24T02:58:43.450Z,96.13
2019-03-24T03:01:13.418Z,94.63
2019-03-24T03:03:43.414Z,89.90
2019-03-24T03:06:13.317Z,96.53
2019-03-24T03:08:43.364Z,92.93
2019-03-24T03:11:13.432Z,90.33
2019-03-24T03:13:43.387Z,94.07
2019-03-24T03:16:16.839Z,91.53
2019-03-24T03:18:46.908Z,91.20
2019-03-24T03:21:16.879Z,85.90
2019-03-24T03:23:46.890Z,93.83
2019-03-24T03:26:16.889Z,89.57
2019-03-24T03:28:46.881Z,86.80
2019-03-24T03:31:16.837Z,88.77
2019-03-24T03:33:46.813Z,82.37
2019-03-24T03:36:16.758Z,90.03
2019-03-24T03:38:46.807Z,86.73
2019-03-24T03:41:16.889Z,85.73
2019-03-24T03:43:46.808Z,89.07
2019-03-24T03:46:16.852Z,92.13
2019-03-24T03:48:46.835Z,86.50
2019-03-24T03:51:16.891Z,82.53
2019-03-24T03:53:46.988Z,81.00
2019-03-24T03:56:17.665Z,73.30
2019-03-24T03:58:47.612Z,75.63
2019-03-24T04:01:17.608Z,67.73
2019-03-24T04:03:47.476Z,59.13
2019-03-24T04:06:17.580Z,60.57
2019-03-24T04:08:47.548Z,57.53
2019-03-24T04:11:17.534Z,58.23
2019-03-24T04:13:48.076Z,52.30
2019-03-24T04:16:18.212Z,55.27
2019-03-24T04:18:48.154Z,60.10
2019-03-24T04:21:18.165Z,59.07
2019-03-24T04:23:48.088Z,59.03
2019-03-24T04:26:18.077Z,59.50
2019-03-24T04:28:48.009Z,55.23
2019-03-24T04:31:17.952Z,54.80
2019-03-24T04:33:47.815Z,52.03
2019-03-24T04:36:17.942Z,50.87
2019-03-24T04:38:47.953Z,48.53
2019-03-24T04:41:17.871Z,54.40
2019-03-24T04:43:47.947Z,53.73
2019-03-24T04:46:18.065Z,56.63
2019-03-24T04:48:47.990Z,48.67
2019-03-24T04:51:20.540Z,52.60
2019-03-24T04:53:50.855Z,49.67
2019-03-24T04:56:33.326Z,48.27
2019-03-24T04:59:03.219Z,52.63
2019-03-24T05:01:33.316Z,48.23
2019-03-24T05:04:04.263Z,47.97
2019-03-24T05:06:34.933Z,46.10
2019-03-24T05:09:05.127Z,42.87
2019-03-24T05:11:35.173Z,45.10
2019-03-24T05:14:05.078Z,47.40
2019-03-24T05:16:36.831Z,42.73
2019-03-24T05:22:38.937Z,43.97
2019-03-24T05:25:08.863Z,43.33
2019-03-24T05:27:38.839Z,44.10
2019-03-24T05:30:09.192Z,43.90
2019-03-24T05:32:39.615Z,46.23
2019-03-24T05:35:09.733Z,40.67
2019-03-24T05:37:39.641Z,44.87
2019-03-24T05:40:09.724Z,42.40
2019-03-24T05:42:41.207Z,41.43
2019-03-24T05:45:28.832Z,41.03
2019-03-24T05:47:58.693Z,42.40
2019-03-24T05:50:28.576Z,41.00
2019-03-24T05:52:58.371Z,41.67
2019-03-24T05:55:28.244Z,39.23
2019-03-24T05:57:58.143Z,39.00
2019-03-24T06:06:32.685Z,41.80
2019-03-24T06:09:03.498Z,42.10
2019-03-24T06:11:33.315Z,44.60
2019-03-24T06:14:03.111Z,45.73
2019-03-24T06:16:32.982Z,41.80
2019-03-24T06:19:02.788Z,39.93
2019-03-24T06:21:32.606Z,42.43
2019-03-24T06:24:02.361Z,41.93
2019-03-24T06:26:32.130Z,44.07
2019-03-24T06:29:01.913Z,43.07
2019-03-24T06:31:33.086Z,41.00
2019-03-24T06:34:02.985Z,38.63
2019-03-24T06:36:32.831Z,37.63
2019-03-24T06:39:02.922Z,35.83
2019-03-24T06:41:32.646Z,35.20
2019-03-24T06:44:02.502Z,34.47
2019-03-24T06:46:32.291Z,36.00
2019-03-24T06:49:02.022Z,35.83
2019-03-24T06:51:31.826Z,33.73
2019-03-24T06:54:01.731Z,34.53
2019-03-24T06:56:31.478Z,33.67
2019-03-24T06:59:01.333Z,33.10
2019-03-24T07:01:31.209Z,32.93
2019-03-24T07:04:01.010Z,36.53
2019-03-24T07:06:30.811Z,32.40
2019-03-24T07:09:00.705Z,32.20
2019-03-24T07:11:30.545Z,34.03
2019-03-24T07:14:00.423Z,36.67
2019-03-24T07:16:30.522Z,33.90
2019-03-24T07:19:00.319Z,33.57
2019-03-24T07:21:30.147Z,31.50
2019-03-24T07:24:00.631Z,32.77
2019-03-24T07:26:30.445Z,32.37
2019-03-24T07:29:00.258Z,32.90
2019-03-24T07:31:30.066Z,32.23
2019-03-24T07:33:59.940Z,31.73
2019-03-24T07:36:29.713Z,31.77
2019-03-24T07:38:59.488Z,30.03
2019-03-24T07:41:29.314Z,26.93
2019-03-24T07:43:59.135Z,32.00
2019-03-24T07:46:28.981Z,28.83
2019-03-24T07:48:58.783Z,26.80
2019-03-24T07:51:28.594Z,28.43
2019-03-24T07:53:58.357Z,27.53
2019-03-24T07:56:28.111Z,26.27
2019-03-24T07:58:57.919Z,25.10
2019-03-24T08:01:27.706Z,26.40
2019-03-24T08:03:57.616Z,25.47
2019-03-24T08:06:27.426Z,25.47
2019-03-24T08:08:57.184Z,24.97
2019-03-24T08:11:27.104Z,24.80
2019-03-24T08:13:57.030Z,25.40
2019-03-24T08:16:26.892Z,22.17
2019-03-24T08:18:57.943Z,24.40
2019-03-24T08:21:27.814Z,27.80
2019-03-24T08:23:57.720Z,30.87
2019-03-24T08:26:27.614Z,41.17
2019-03-24T08:28:57.455Z,32.50
2019-03-24T08:31:27.214Z,28.13
2019-03-24T08:33:57.105Z,25.57
2019-03-24T08:36:26.943Z,25.57
2019-03-24T08:38:56.821Z,25.00
2019-03-24T08:41:26.577Z,22.30
2019-03-24T08:43:56.389Z,21.40
2019-03-24T08:46:26.532Z,19.13
2019-03-24T08:48:56.426Z,17.63
2019-03-24T08:51:26.273Z,21.13
2019-03-24T08:53:56.098Z,18.57
2019-03-24T08:56:25.978Z,18.60
2019-03-24T08:58:55.793Z,19.23
2019-03-24T09:01:25.584Z,17.67
2019-03-24T09:03:55.390Z,22.70
2019-03-24T09:06:25.205Z,18.20
2019-03-24T09:08:55.055Z,19.70
2019-03-24T09:11:31.375Z,18.87
2019-03-24T09:13:58.739Z,15.93
2019-03-24T09:16:28.527Z,18.47
2019-03-24T09:18:58.327Z,18.43
2019-03-24T09:21:28.143Z,14.87
2019-03-24T09:23:57.984Z,16.10
2019-03-24T09:26:27.921Z,15.37
2019-03-24T09:28:59.328Z,15.13
2019-03-24T09:31:29.275Z,14.77
2019-03-24T09:33:59.112Z,14.00
2019-03-24T09:36:28.959Z,13.57
2019-03-24T09:38:58.878Z,14.93
2019-03-24T09:41:28.694Z,13.93
2019-03-24T09:43:58.590Z,12.03
2019-03-24T09:46:28.441Z,13.60
2019-03-24T09:49:03.064Z,15.10
2019-03-24T09:51:29.699Z,13.17
2019-03-24T09:53:59.610Z,13.47
2019-03-24T09:56:29.481Z,14.97
2019-03-24T09:58:59.346Z,13.50
2019-03-24T10:01:29.110Z,15.53
2019-03-24T10:03:58.981Z,14.17
2019-03-24T10:06:28.819Z,15.70
2019-03-24T10:08:58.638Z,13.73
2019-03-24T10:11:28.474Z,13.67
2019-03-24T10:13:58.241Z,13.43
2019-03-24T10:16:28.950Z,13.17
2019-03-24T10:18:58.948Z,16.17
2019-03-24T10:21:29.361Z,13.67
2019-03-24T10:23:59.420Z,13.17
2019-03-24T10:26:29.516Z,13.90
2019-03-24T10:28:59.427Z,11.87
2019-03-24T10:31:29.310Z,23.47
2019-03-24T10:33:59.183Z,13.83
2019-03-24T10:36:29.102Z,11.43
2019-03-24T10:38:59.024Z,12.17
2019-03-24T10:41:29.112Z,14.07
2019-03-24T10:43:59.048Z,13.50
2019-03-24T10:46:28.910Z,14.27
2019-03-24T10:48:58.880Z,12.67
2019-03-24T10:51:28.898Z,13.77
2019-03-24T10:53:59.003Z,12.97
2019-03-24T10:56:29.076Z,12.40
2019-03-24T10:58:58.924Z,12.63
2019-03-24T11:01:28.895Z,12.20
2019-03-24T11:04:09.439Z,11.97
2019-03-24T11:06:42.014Z,12.60
2019-03-24T11:13:08.551Z,15.17
2019-03-24T11:15:40.127Z,13.43
2019-03-24T11:24:59.349Z,11.63
2019-03-24T11:27:29.819Z,12.13
2019-03-24T11:30:36.793Z,12.40
2019-03-24T11:33:08.265Z,14.87
2019-03-24T12:21:41.474Z,13.07
2019-03-24T12:24:13.165Z,13.50
2019-03-24T12:26:43.931Z,13.60
2019-03-24T12:29:15.871Z,13.73
2019-03-24T12:31:45.910Z,12.70
2019-03-24T12:34:16.199Z,11.53
2019-03-24T12:36:46.473Z,12.87
2019-03-24T12:39:16.353Z,11.70
2019-03-24T12:41:47.539Z,14.53
2019-03-24T12:44:17.648Z,13.97
2019-03-24T12:46:47.688Z,14.03
2019-03-24T12:49:17.876Z,15.47
2019-03-24T12:51:50.839Z,16.57
2019-03-24T12:54:20.843Z,15.10
2019-03-24T12:56:50.829Z,13.63
2019-03-24T12:59:20.864Z,17.27
2019-03-24T13:01:52.832Z,14.90
2019-03-24T13:04:22.400Z,15.57
2019-03-24T13:06:52.563Z,15.07
2019-03-24T13:09:22.512Z,16.83
2019-03-24T13:11:52.721Z,14.87
2019-03-24T13:14:22.652Z,16.27
2019-03-24T13:16:52.545Z,15.77
2019-03-24T13:19:23.934Z,16.00
2019-03-24T13:21:53.909Z,16.50
2019-03-24T13:24:24.093Z,15.97
2019-03-24T13:26:54.114Z,18.53
2019-03-24T13:29:32.089Z,17.03
2019-03-24T13:37:30.347Z,14.93
2019-03-24T13:40:54.818Z,17.17
2019-03-24T13:43:35.311Z,18.30
2019-03-24T13:46:05.429Z,18.30
2019-03-24T13:48:35.499Z,15.63
2019-03-24T13:51:05.511Z,17.40
2019-03-24T13:53:35.924Z,18.20
2019-03-24T13:56:06.073Z,18.40
2019-03-24T13:58:35.995Z,16.80
2019-03-24T14:01:07.751Z,17.37
2019-03-24T14:03:37.576Z,17.20
2019-03-24T14:06:07.450Z,14.63
2019-03-24T14:08:37.312Z,15.17
2019-03-24T14:11:07.257Z,15.07
2019-03-24T14:13:37.112Z,15.40
2019-03-24T14:16:07.254Z,14.90
2019-03-24T14:18:37.102Z,13.43
2019-03-24T14:21:07.396Z,14.93
2019-03-24T14:23:37.219Z,15.43
2019-03-24T14:26:07.203Z,16.40
2019-03-24T14:28:37.153Z,17.20
2019-03-24T14:31:07.105Z,12.57
2019-03-24T14:33:37.051Z,15.67
2019-03-24T14:36:07.421Z,16.07
2019-03-24T14:38:37.355Z,15.03
2019-03-24T14:41:07.317Z,14.07
2019-03-24T14:43:37.323Z,17.13
2019-03-24T14:46:08.560Z,19.80
2019-03-24T14:48:38.551Z,15.97
2019-03-24T14:51:08.467Z,18.10
2019-03-24T14:53:38.457Z,16.33
2019-03-24T14:56:08.400Z,15.17
2019-03-24T14:58:38.395Z,20.53
2019-03-24T15:01:08.244Z,18.90
2019-03-24T15:03:38.486Z,24.40
2019-03-24T15:06:08.497Z,19.03
2019-03-24T15:08:38.398Z,19.17
2019-03-24T15:11:08.310Z,19.00
2019-03-24T15:13:38.341Z,19.53
2019-03-24T15:16:08.437Z,19.33
2019-03-24T15:18:38.287Z,19.10
2019-03-24T15:21:08.212Z,18.43
2019-03-24T15:23:38.175Z,17.93
2019-03-24T15:26:08.167Z,17.00
2019-03-24T15:28:38.149Z,17.73
2019-03-24T15:31:08.020Z,14.87
2019-03-24T15:33:38.017Z,16.37
2019-03-24T15:36:08.195Z,17.83
2019-03-24T15:38:38.839Z,21.03
2019-03-24T15:41:09.111Z,24.53
2019-03-24T15:44:05.436Z,24.83
2019-03-24T15:46:36.418Z,22.13
2019-03-24T15:49:13.504Z,20.50
2019-03-24T15:51:43.763Z,18.97
2019-03-24T15:54:14.112Z,19.90
2019-03-24T15:56:45.453Z,23.57
2019-03-24T15:59:15.577Z,20.33
2019-03-24T16:02:13.813Z,19.60
2019-03-24T16:04:43.769Z,20.53
2019-03-24T16:10:46.927Z,21.80
2019-03-24T16:13:17.045Z,18.67
2019-03-24T16:15:46.927Z,18.27
2019-03-24T16:18:16.990Z,19.43
2019-03-24T16:20:49.394Z,20.37
2019-03-24T16:23:19.253Z,25.90
2019-03-24T16:25:49.328Z,23.40
2019-03-24T16:28:19.398Z,23.97
2019-03-24T16:30:49.351Z,22.60
2019-03-24T16:33:21.603Z,23.03
2019-03-24T16:35:51.489Z,24.30
2019-03-24T16:38:21.684Z,31.13
2019-03-24T16:40:51.642Z,29.27
2019-03-24T16:43:32.429Z,31.47
2019-03-24T16:46:02.324Z,27.97
2019-03-24T16:48:36.932Z,30.10
2019-03-24T16:51:10.439Z,28.53
2019-03-24T16:53:40.872Z,29.20
2019-03-24T16:56:11.089Z,29.43
2019-03-24T16:58:42.991Z,39.03
2019-03-24T17:01:22.339Z,39.70
2019-03-24T17:03:53.841Z,36.80
2019-03-24T17:07:20.644Z,34.90
2019-03-24T17:09:52.170Z,34.53
2019-03-24T17:12:22.947Z,29.20
2019-03-24T17:14:53.304Z,27.87
2019-03-24T17:17:23.731Z,28.80
2019-03-24T17:19:53.960Z,26.80
2019-03-24T17:22:24.208Z,27.23
2019-03-24T17:24:54.651Z,26.33
2019-03-24T17:27:40.561Z,23.87
2019-03-24T17:30:11.915Z,24.93
2019-03-24T17:32:41.963Z,23.53
2019-03-24T17:35:12.182Z,25.03
2019-03-24T17:37:45.057Z,28.37
2019-03-24T17:40:15.250Z,29.57
2019-03-24T17:42:45.166Z,26.93
2019-03-24T17:45:15.551Z,27.97
2019-03-24T17:47:45.665Z,27.47
2019-03-24T17:50:16.087Z,30.67
2019-03-24T17:52:46.128Z,29.37
2019-03-24T17:55:26.848Z,33.23
2019-03-24T17:57:47.938Z,36.13
2019-03-24T18:00:41.506Z,33.70
2019-03-24T18:03:11.584Z,34.13
2019-03-24T18:05:41.773Z,40.80
2019-03-24T18:08:12.194Z,35.07
2019-03-24T18:10:42.395Z,36.90
2019-03-24T18:13:12.743Z,38.17
2019-03-24T18:15:42.785Z,38.40
2019-03-24T18:18:13.008Z,39.57
2019-03-24T18:20:42.992Z,39.30
2019-03-24T18:23:13.165Z,41.47
2019-03-24T18:25:43.286Z,43.67
2019-03-24T18:28:13.226Z,43.90
2019-03-24T18:30:43.200Z,42.50
2019-03-24T18:33:13.169Z,42.23
2019-03-24T18:35:43.292Z,44.57
2019-03-24T18:38:13.431Z,42.83
2019-03-24T18:40:43.563Z,43.57
2019-03-24T18:43:13.714Z,39.27
2019-03-24T18:45:43.690Z,45.63
2019-03-24T18:48:13.876Z,43.90
2019-03-24T18:50:43.898Z,44.93
2019-03-24T18:53:13.872Z,42.57
2019-03-24T18:55:43.897Z,44.30
2019-03-24T18:58:13.858Z,46.17
2019-03-24T19:00:44.093Z,39.17
2019-03-24T19:03:14.037Z,44.20
2019-03-24T19:05:44.045Z,52.97
2019-03-24T19:08:13.985Z,68.97
2019-03-24T19:11:15.675Z,58.87
2019-03-24T19:13:46.089Z,63.80
2019-03-24T19:16:16.343Z,55.07
2019-03-24T19:18:46.568Z,49.17
2019-03-24T19:21:18.323Z,48.23
2019-03-24T19:23:48.644Z,53.20
2019-03-24T19:26:18.496Z,52.73
2019-03-24T19:28:48.908Z,57.60
2019-03-24T19:31:19.007Z,56.00
2019-03-24T19:34:04.750Z,49.07
2019-03-24T19:36:34.913Z,58.43
2019-03-24T19:41:56.855Z,73.00
2019-03-24T19:44:28.480Z,58.43
2019-03-24T19:46:58.711Z,51.83
2019-03-24T19:49:28.880Z,44.47
2019-03-24T19:52:02.243Z,50.30
2019-03-24T19:54:51.159Z,47.47
2019-03-24T19:57:22.543Z,50.23
2019-03-24T19:59:52.620Z,49.67
2019-03-24T20:02:24.214Z,52.27
2019-03-24T20:04:56.671Z,55.53
2019-03-24T20:07:27.135Z,47.87
2019-03-24T20:10:20.527Z,43.83
2019-03-24T20:12:50.555Z,37.57
2019-03-24T20:15:21.995Z,40.67
2019-03-24T20:17:52.947Z,34.87
2019-03-24T20:20:24.229Z,36.53
2019-03-24T20:22:56.905Z,33.27
2019-03-24T20:25:25.885Z,36.63
2019-03-24T20:27:57.963Z,37.10
2019-03-24T20:30:29.465Z,39.83
2019-03-24T20:33:00.164Z,33.27
2019-03-24T20:35:35.544Z,28.03
2019-03-24T20:40:50.846Z,30.00
2019-03-24T20:43:30.101Z,27.90
2019-03-24T20:46:00.875Z,30.10
2019-03-24T20:48:31.659Z,30.43
2019-03-24T20:51:03.151Z,28.87
2019-03-24T20:53:33.194Z,28.20
2019-03-24T20:56:03.265Z,33.97
2019-03-24T20:58:52.778Z,33.07
2019-03-24T21:01:23.309Z,31.40
2019-03-24T21:03:53.282Z,27.63
2019-03-24T21:06:26.873Z,30.30
2019-03-24T21:08:56.871Z,26.93
2019-03-24T21:11:26.884Z,31.10
2019-03-24T21:14:00.004Z,24.83
2019-03-24T21:16:29.978Z,27.37
2019-03-24T21:19:05.665Z,23.33
2019-03-24T21:21:36.342Z,18.77
2019-03-24T21:24:06.868Z,19.83
2019-03-24T21:26:36.855Z,16.47
2019-03-24T21:29:08.863Z,11.67
2019-03-24T21:31:38.825Z,12.47
2019-03-24T21:34:08.671Z,15.53
2019-03-24T21:36:38.661Z,13.80
2019-03-24T21:39:09.167Z,12.33
2019-03-24T21:41:39.090Z,12.17
2019-03-24T21:44:09.457Z,12.07
2019-03-24T21:46:39.347Z,11.80
2019-03-24T21:49:09.280Z,26.93
2019-03-24T21:51:39.218Z,23.03
2019-03-24T21:54:09.094Z,17.27
2019-03-24T21:56:39.011Z,17.43
2019-03-24T21:59:09.373Z,13.57
2019-03-24T22:01:39.473Z,15.90
2019-03-24T22:04:09.510Z,12.67
2019-03-24T22:06:39.900Z,10.93
2019-03-24T22:09:10.160Z,14.80
2019-03-24T22:11:40.116Z,22.47
2019-03-24T22:14:10.073Z,18.27
2019-03-24T22:16:43.554Z,15.53
2019-03-24T22:19:13.503Z,28.77
2019-03-24T22:21:43.622Z,16.90
2019-03-24T22:24:13.556Z,20.57
2019-03-24T22:26:44.161Z,17.33
2019-03-24T22:29:14.388Z,12.63
2019-03-24T22:31:44.807Z,14.03
2019-03-24T22:34:15.046Z,15.40
2019-03-24T22:36:45.224Z,11.93
2019-03-24T22:39:15.209Z,15.87
2019-03-24T22:41:47.401Z,16.43
2019-03-24T22:44:17.904Z,16.20
2019-03-24T22:46:47.773Z,15.50
2019-03-24T22:49:17.951Z,12.87
2019-03-24T22:51:48.227Z,13.77
2019-03-24T22:54:18.766Z,20.07
2019-03-24T22:56:49.425Z,22.70
2019-03-24T22:59:19.519Z,19.67
2019-03-24T23:01:50.045Z,19.27
2019-03-24T23:04:20.093Z,20.30
2019-03-24T23:06:50.027Z,25.57
2019-03-24T23:09:20.023Z,23.80
2019-03-24T23:11:50.189Z,24.53
2019-03-24T23:14:20.180Z,24.27
2019-03-24T23:16:50.384Z,28.23
2019-03-24T23:19:20.396Z,24.23
2019-03-24T23:21:50.639Z,25.33
2019-03-24T23:24:21.146Z,24.10
2019-03-24T23:26:51.262Z,23.30
2019-03-24T23:29:21.248Z,27.43
2019-03-24T23:31:51.234Z,24.07
2019-03-24T23:34:21.362Z,24.93
2019-03-24T23:36:51.464Z,22.77
2019-03-24T23:39:21.844Z,23.33
2019-03-24T23:41:51.826Z,21.77
2019-03-24T23:44:21.843Z,23.10
2019-03-24T23:46:51.936Z,21.30
2019-03-24T23:49:22.057Z,44.10
2019-03-24T23:51:52.422Z,54.47
2019-03-24T23:54:27.133Z,63.53
2019-03-24T23:56:54.163Z,57.23
2019-03-24T23:59:23.992Z,57.30
